Time;durP1;ratioP1;P1;durP2;ratioP2;P2;SDS_P1;SDS_P2;PMS_P1;PMS_P2;Temp;Humidity;BMP_temperature;BMP_pressure;BME280_temperature;BME280_humidity;BME280_pressure;Samples;Min_cycle;Max_cycle;Signal;HPM_P1;HPM_P2
2023/01/19 00:01:55;;;;;;;53.72;47.83;;;13.20;62.10;;;;;;5029439;27;85225;-60
2023/01/19 00:04:21;;;;;;;53.58;47.78;;;13.20;61.30;;;;;;5024000;27;85152;-61
2023/01/19 00:06:46;;;;;;;52.90;47.25;;;13.20;61.10;;;;;;5041895;27;84845;-59
2023/01/19 00:09:12;;;;;;;53.15;47.35;;;13.20;61.30;;;;;;5036327;27;88824;-60
2023/01/19 00:11:38;;;;;;;54.00;47.70;;;13.20;61.00;;;;;;5020295;27;86410;-58
2023/01/19 00:14:04;;;;;;;53.20;47.45;;;13.20;61.20;;;;;;5038717;27;91386;-54
2023/01/19 00:16:30;;;;;;;54.75;47.70;;;13.20;61.20;;;;;;5034243;27;84988;-61
2023/01/19 00:18:55;;;;;;;52.85;47.10;;;13.20;61.00;;;;;;5052050;27;84466;-59
2023/01/19 00:21:21;;;;;;;52.53;46.92;;;13.20;61.10;;;;;;5019859;27;84332;-57
2023/01/19 00:23:47;;;;;;;53.80;47.78;;;13.20;61.00;;;;;;5042636;27;85423;-58
2023/01/19 00:26:16;;;;;;;53.33;47.58;;;13.10;61.10;;;;;;5043956;27;86466;-59
2023/01/19 00:28:45;;;;;;;53.13;47.33;;;13.20;61.20;;;;;;5043795;27;85370;-60
2023/01/19 00:31:11;;;;;;;53.40;47.70;;;13.20;60.90;;;;;;5043652;27;84701;-60
2023/01/19 00:33:36;;;;;;;53.22;47.40;;;13.10;61.10;;;;;;5040783;27;84948;-60
2023/01/19 00:36:03;;;;;;;52.70;47.00;;;13.20;60.90;;;;;;5050237;27;86416;-59
2023/01/19 00:38:29;;;;;;;53.33;47.58;;;13.20;61.00;;;;;;5058331;27;84765;-60
2023/01/19 00:40:55;;;;;;;53.08;47.30;;;13.20;60.90;;;;;;5035217;27;85591;-60
2023/01/19 00:43:20;;;;;;;53.30;47.58;;;13.10;60.80;;;;;;5046866;27;84841;-60
2023/01/19 00:45:46;;;;;;;53.63;47.72;;;13.20;60.80;;;;;;5041655;27;86023;-59
2023/01/19 00:48:12;;;;;;;53.28;47.53;;;13.20;60.90;;;;;;5043310;27;85601;-60
2023/01/19 00:50:37;;;;;;;53.60;47.70;;;13.10;61.10;;;;;;5037672;27;84778;-60
2023/01/19 00:53:03;;;;;;;53.47;47.67;;;13.10;60.80;;;;;;5036944;27;85196;-60
2023/01/19 00:55:31;;;;;;;54.33;48.42;;;13.10;60.90;;;;;;5037431;27;84933;-57
2023/01/19 00:57:57;;;;;;;53.92;48.03;;;13.10;61.00;;;;;;5044720;27;85363;-59
2023/01/19 01:00:23;;;;;;;53.70;47.90;;;13.10;60.90;;;;;;5042025;27;85708;-61
2023/01/19 01:02:51;;;;;;;53.47;47.67;;;13.00;60.80;;;;;;5048822;27;85551;-59
2023/01/19 01:05:18;;;;;;;53.55;47.75;;;13.00;61.10;;;;;;5021540;27;85542;-59
2023/01/19 01:07:45;;;;;;;53.70;47.75;;;13.00;61.20;;;;;;5042117;27;90128;-52
2023/01/19 01:10:18;;;;;;;53.22;47.42;;;13.00;61.00;;;;;;5054490;27;86972;-55
2023/01/19 01:12:48;;;;;;;52.88;47.17;;;13.10;61.10;;;;;;5044888;27;84771;-55
2023/01/19 01:15:15;;;;;;;53.00;47.30;;;13.10;61.00;;;;;;5048234;27;85816;-59
2023/01/19 01:17:51;;;;;;;54.22;47.65;;;13.00;60.90;;;;;;5051697;27;84725;-59
2023/01/19 01:20:20;;;;;;;54.15;47.85;;;13.00;60.90;;;;;;5038655;27;85568;-56
2023/01/19 01:22:48;;;;;;;53.15;47.45;;;13.00;61.00;;;;;;5032882;27;85031;-56
2023/01/19 01:25:15;;;;;;;53.65;47.78;;;13.00;61.00;;;;;;5056987;27;85863;-60
2023/01/19 01:27:41;;;;;;;52.58;46.88;;;13.00;60.80;;;;;;5038953;27;85815;-59
2023/01/19 01:30:09;;;;;;;53.28;47.50;;;13.00;61.00;;;;;;5039009;27;84757;-58
2023/01/19 01:32:35;;;;;;;54.30;47.35;;;13.00;61.10;;;;;;5043248;27;85006;-57
2023/01/19 01:35:01;;;;;;;52.60;46.90;;;13.00;61.00;;;;;;5045903;27;86028;-60
2023/01/19 01:37:26;;;;;;;53.33;47.53;;;13.00;60.90;;;;;;5035945;27;85222;-60
2023/01/19 01:39:52;;;;;;;53.20;47.50;;;13.00;61.00;;;;;;5048881;27;86139;-52
2023/01/19 01:42:24;;;;;;;52.88;47.08;;;13.00;60.80;;;;;;5055426;27;84757;-61
2023/01/19 01:44:51;;;;;;;53.42;47.50;;;13.00;60.90;;;;;;5038169;27;85395;-61
2023/01/19 01:47:46;;;;;;;54.08;48.03;;;12.90;61.00;;;;;;5038382;27;84842;-55
2023/01/19 01:50:19;;;;;;;53.38;47.35;;;13.00;61.20;;;;;;5045691;27;86590;-59
2023/01/19 01:52:49;;;;;;;54.20;47.45;;;12.90;60.90;;;;;;5046937;27;85928;-59
2023/01/19 01:55:16;;;;;;;53.47;47.67;;;12.90;60.90;;;;;;5042213;27;86308;-60
2023/01/19 01:58:01;;;;;;;54.80;48.10;;;12.90;61.00;;;;;;5026861;27;85462;-60
2023/01/19 02:02:49;;;;;;;53.63;47.80;;;12.90;61.00;;;;;;5032049;27;85355;-59
2023/01/19 02:03:13;;;;;;;53.78;47.88;;;12.80;61.20;;;;;;5027363;27;86032;-61
2023/01/19 02:05:40;;;;;;;53.22;47.42;;;12.90;61.10;;;;;;5046057;27;85063;-58
2023/01/19 02:13:45;;;;;;;53.17;47.40;;;12.90;61.10;;;;;;5051000;27;84777;-60
2023/01/19 02:16:12;;;;;;;52.60;46.90;;;12.80;61.30;;;;;;5036354;27;85277;-57
2023/01/19 02:18:39;;;;;;;53.40;47.45;;;12.80;61.20;;;;;;5027169;27;86855;-61
2023/01/19 02:21:08;;;;;;;52.80;47.10;;;12.80;61.10;;;;;;5030445;27;84764;-55
2023/01/19 02:23:55;;;;;;;52.85;47.08;;;12.80;61.00;;;;;;5036278;27;88964;-56
2023/01/19 02:26:28;;;;;;;52.92;47.22;;;12.80;61.00;;;;;;5039980;27;86393;-59
2023/01/19 02:28:58;;;;;;;52.72;47.10;;;12.80;61.10;;;;;;5053526;27;85639;-61
2023/01/19 02:31:26;;;;;;;52.85;47.15;;;12.80;61.20;;;;;;5047534;27;85408;-59
2023/01/19 02:33:53;;;;;;;53.72;47.83;;;12.80;61.00;;;;;;5036617;27;86471;-60
2023/01/19 02:36:24;;;;;;;52.47;46.88;;;12.70;61.20;;;;;;5042775;27;85322;-60
2023/01/19 02:38:51;;;;;;;52.53;46.90;;;12.70;61.10;;;;;;5032053;27;84807;-58
2023/01/19 02:41:21;;;;;;;53.22;47.45;;;12.70;61.20;;;;;;5039772;27;85087;-58
2023/01/19 02:43:48;;;;;;;52.22;46.72;;;12.70;61.20;;;;;;5040595;27;85723;-60
2023/01/19 02:46:14;;;;;;;52.70;47.00;;;12.70;61.20;;;;;;5016808;27;86145;-47
2023/01/19 02:48:41;;;;;;;52.63;47.03;;;12.70;61.30;;;;;;5043240;27;84614;-59
2023/01/19 02:51:21;;;;;;;53.63;47.70;;;12.70;61.20;;;;;;5036496;27;86142;-60
2023/01/19 02:54:21;;;;;;;53.45;47.63;;;12.70;61.20;;;;;;5048800;27;84160;-56
2023/01/19 02:56:53;;;;;;;52.80;47.10;;;12.70;61.30;;;;;;5034390;27;85711;-59
2023/01/19 02:59:44;;;;;;;52.60;47.00;;;12.70;61.30;;;;;;5034938;27;90423;-60
2023/01/19 03:02:25;;;;;;;52.78;47.03;;;12.70;61.30;;;;;;5051739;27;90754;-54
2023/01/19 03:04:56;;;;;;;53.22;47.28;;;12.60;61.20;;;;;;5046438;27;84931;-61
2023/01/19 03:07:53;;;;;;;52.88;47.15;;;12.70;61.30;;;;;;5052526;27;84522;-55
2023/01/19 03:10:38;;;;;;;52.35;46.78;;;12.60;61.30;;;;;;5041234;27;85064;-60
2023/01/19 03:13:29;;;;;;;52.92;47.25;;;12.60;61.20;;;;;;5035509;27;85189;-60
2023/01/19 03:16:00;;;;;;;53.05;47.33;;;12.60;61.20;;;;;;5034062;27;85316;-55
2023/01/19 03:18:30;;;;;;;52.55;47.00;;;12.60;61.20;;;;;;5037132;27;85870;-53
2023/01/19 03:21:00;;;;;;;53.35;47.47;;;12.60;61.20;;;;;;5040507;27;84337;-56
2023/01/19 03:23:30;;;;;;;53.58;47.78;;;12.60;61.90;;;;;;5032525;27;84621;-55
2023/01/19 03:25:58;;;;;;;53.03;47.30;;;12.60;61.20;;;;;;5046195;27;85570;-56
2023/01/19 03:28:27;;;;;;;52.63;46.83;;;12.60;61.10;;;;;;5031940;27;84833;-47
2023/01/19 03:31:04;;;;;;;53.10;47.30;;;12.60;61.10;;;;;;5035684;27;84587;-60
2023/01/19 03:33:35;;;;;;;52.50;46.83;;;12.60;60.90;;;;;;5044805;27;84814;-61
2023/01/19 03:36:15;;;;;;;52.93;47.23;;;12.60;61.10;;;;;;5038188;27;84446;-61
2023/01/19 03:38:43;;;;;;;53.28;47.03;;;12.50;61.20;;;;;;5046570;27;84793;-56
2023/01/19 03:41:15;;;;;;;53.15;47.20;;;12.60;61.20;;;;;;5038352;27;85659;-48
2023/01/19 03:43:42;;;;;;;53.20;47.40;;;12.50;61.10;;;;;;5038510;27;89595;-58
2023/01/19 03:46:09;;;;;;;53.28;46.95;;;12.50;61.20;;;;;;5038802;27;83898;-60
2023/01/19 03:48:36;;;;;;;52.60;47.03;;;12.50;61.30;;;;;;5041799;27;85646;-61
2023/01/19 03:51:07;;;;;;;52.67;46.97;;;12.50;61.20;;;;;;5050707;27;85292;-60
2023/01/19 03:53:33;;;;;;;53.05;47.28;;;12.50;61.40;;;;;;5045693;27;85718;-61
2023/01/19 03:55:58;;;;;;;52.78;47.13;;;12.50;61.20;;;;;;5031686;27;85237;-59
2023/01/19 03:58:24;;;;;;;52.42;46.80;;;12.50;61.30;;;;;;5047250;27;86812;-60
2023/01/19 04:00:50;;;;;;;52.65;47.05;;;12.50;61.30;;;;;;5039422;27;84248;-61
2023/01/19 04:03:16;;;;;;;52.65;46.92;;;12.50;61.20;;;;;;5050256;27;86614;-60
2023/01/19 04:05:43;;;;;;;52.83;47.10;;;12.60;61.00;;;;;;5039130;27;84633;-61
2023/01/19 04:08:08;;;;;;;52.55;46.83;;;12.50;61.00;;;;;;5039462;27;86775;-55
2023/01/19 04:10:35;;;;;;;52.65;46.97;;;12.50;61.20;;;;;;5049868;27;86009;-53
2023/01/19 04:13:01;;;;;;;53.25;47.33;;;12.50;61.10;;;;;;5039715;27;86215;-60
2023/01/19 04:15:27;;;;;;;52.50;46.92;;;12.50;61.20;;;;;;5030618;27;85196;-55
2023/01/19 04:17:55;;;;;;;52.85;47.22;;;12.50;61.20;;;;;;5043971;27;85478;-60
2023/01/19 04:20:21;;;;;;;54.53;47.30;;;12.50;61.20;;;;;;5038902;27;84400;-59
2023/01/19 04:22:48;;;;;;;52.35;46.75;;;12.50;61.00;;;;;;5027857;27;93133;-54
2023/01/19 04:25:14;;;;;;;53.20;47.40;;;12.50;60.90;;;;;;5050940;27;84070;-61
2023/01/19 04:27:40;;;;;;;52.85;47.08;;;12.50;61.10;;;;;;5039824;27;85106;-56
2023/01/19 04:30:07;;;;;;;52.83;47.10;;;12.40;61.20;;;;;;5046906;27;85549;-59
2023/01/19 04:32:32;;;;;;;52.58;46.95;;;12.40;61.20;;;;;;5021295;27;84707;-58
2023/01/19 04:34:58;;;;;;;52.40;46.80;;;12.50;61.10;;;;;;5039481;27;85683;-61
2023/01/19 04:37:24;;;;;;;52.97;47.17;;;12.40;61.10;;;;;;5048150;27;89389;-59
2023/01/19 04:39:50;;;;;;;55.15;47.22;;;12.50;61.10;;;;;;5032979;27;85226;-57
2023/01/19 04:42:15;;;;;;;52.95;47.25;;;12.50;61.10;;;;;;5040667;27;87129;-59
2023/01/19 04:44:42;;;;;;;52.72;46.92;;;12.50;61.10;;;;;;5036784;27;89089;-49
2023/01/19 04:47:07;;;;;;;52.67;47.00;;;12.40;61.00;;;;;;5012096;27;88101;-61
2023/01/19 04:49:36;;;;;;;53.17;47.45;;;12.40;61.00;;;;;;5041041;27;90826;-61
2023/01/19 04:52:03;;;;;;;52.72;47.13;;;12.40;61.20;;;;;;5053041;27;84280;-61
2023/01/19 04:54:29;;;;;;;52.75;47.03;;;12.40;61.10;;;;;;5059338;27;84973;-59
2023/01/19 04:56:54;;;;;;;53.35;47.60;;;12.50;60.90;;;;;;5039945;27;86044;-60
2023/01/19 04:59:20;;;;;;;52.53;46.92;;;12.40;60.90;;;;;;5058384;27;85808;-60
2023/01/19 05:01:46;;;;;;;53.17;47.47;;;12.40;61.00;;;;;;5049336;27;84965;-60
2023/01/19 05:04:12;;;;;;;53.25;47.45;;;12.40;61.00;;;;;;5051867;27;84986;-51
2023/01/19 05:06:37;;;;;;;53.40;47.58;;;12.50;61.10;;;;;;5043790;27;86361;-55
2023/01/19 05:09:06;;;;;;;52.53;46.97;;;12.50;60.80;;;;;;5036808;27;86492;-58
2023/01/19 05:11:32;;;;;;;52.88;47.15;;;12.50;60.70;;;;;;5029708;27;84735;-61
2023/01/19 05:13:58;;;;;;;53.05;47.40;;;12.50;60.70;;;;;;5044171;27;85554;-60
2023/01/19 05:16:23;;;;;;;52.80;47.15;;;12.50;60.80;;;;;;5048376;27;84820;-60
2023/01/19 05:18:49;;;;;;;53.75;47.30;;;12.50;60.70;;;;;;5046990;27;86921;-58
2023/01/19 05:21:15;;;;;;;53.13;47.22;;;12.50;60.90;;;;;;5029076;27;85446;-59
2023/01/19 05:23:40;;;;;;;53.05;47.35;;;12.50;60.70;;;;;;5046838;27;84623;-60
2023/01/19 05:26:07;;;;;;;52.83;47.13;;;12.50;60.70;;;;;;5046728;27;87036;-60
2023/01/19 05:28:33;;;;;;;53.63;47.75;;;12.50;60.70;;;;;;5039320;27;85675;-60
2023/01/19 05:30:59;;;;;;;52.95;47.15;;;12.50;60.70;;;;;;5043857;27;84605;-60
2023/01/19 05:33:25;;;;;;;53.35;47.40;;;12.50;60.60;;;;;;5040629;27;85102;-58
2023/01/19 05:35:52;;;;;;;56.20;47.47;;;12.50;60.50;;;;;;5033427;27;84557;-60
2023/01/19 05:38:18;;;;;;;52.45;46.83;;;12.50;60.80;;;;;;5053040;27;86097;-60
2023/01/19 05:40:44;;;;;;;52.75;47.00;;;12.50;60.80;;;;;;5043086;27;86325;-59
2023/01/19 05:43:10;;;;;;;53.08;47.13;;;12.40;60.70;;;;;;5050761;27;85780;-59
2023/01/19 05:45:37;;;;;;;53.05;47.38;;;12.40;60.80;;;;;;5050117;27;84561;-60
2023/01/19 05:48:07;;;;;;;53.17;47.45;;;12.50;60.80;;;;;;5043202;27;86585;-60
2023/01/19 05:50:34;;;;;;;52.97;47.28;;;12.50;60.80;;;;;;5052893;27;84433;-60
2023/01/19 05:53:00;;;;;;;53.13;47.33;;;12.50;60.90;;;;;;5040613;27;83946;-60
2023/01/19 05:55:27;;;;;;;53.25;47.63;;;12.40;60.70;;;;;;5052363;27;84213;-53
2023/01/19 05:57:52;;;;;;;52.60;47.03;;;12.50;60.70;;;;;;5038803;27;86077;-60
2023/01/19 06:00:18;;;;;;;52.95;47.30;;;12.40;60.60;;;;;;5048512;27;84985;-60
2023/01/19 06:02:45;;;;;;;53.60;47.80;;;12.40;60.70;;;;;;5032855;27;84276;-57
2023/01/19 06:05:11;;;;;;;52.95;47.35;;;12.40;60.70;;;;;;5046793;27;83906;-58
2023/01/19 06:07:38;;;;;;;52.58;46.88;;;12.40;60.90;;;;;;5049221;27;85328;-60
2023/01/19 06:10:04;;;;;;;53.10;47.40;;;12.40;60.90;;;;;;5032070;27;84683;-59
2023/01/19 06:12:29;;;;;;;54.55;47.00;;;12.50;60.90;;;;;;5028923;27;84442;-59
2023/01/19 06:15:04;;;;;;;53.38;47.60;;;12.50;60.80;;;;;;5041423;27;84652;-55
2023/01/19 06:17:33;;;;;;;53.50;47.17;;;12.50;61.70;;;;;;5050837;27;84499;-60
2023/01/19 06:19:59;;;;;;;53.42;47.53;;;12.50;60.90;;;;;;5049580;27;87048;-59
2023/01/19 06:22:24;;;;;;;53.80;47.63;;;12.40;60.90;;;;;;5023094;27;91640;-53
2023/01/19 06:24:50;;;;;;;53.35;47.55;;;12.40;61.00;;;;;;5036310;27;84833;-53
2023/01/19 06:27:16;;;;;;;52.92;47.20;;;12.50;61.10;;;;;;5038135;27;88539;-58
2023/01/19 06:29:41;;;;;;;53.65;47.80;;;12.40;61.00;;;;;;5035675;27;84544;-55
2023/01/19 06:32:07;;;;;;;55.50;48.22;;;12.50;61.40;;;;;;5031726;27;85411;-62
2023/01/19 06:34:33;;;;;;;53.30;47.47;;;12.40;60.80;;;;;;5043074;27;85940;-62
2023/01/19 06:36:58;;;;;;;52.85;47.15;;;12.40;61.00;;;;;;5042656;27;84669;-60
2023/01/19 06:39:24;;;;;;;53.38;47.55;;;12.40;61.40;;;;;;5028570;27;85709;-62
2023/01/19 06:41:50;;;;;;;54.90;47.72;;;12.40;61.50;;;;;;5037854;27;84379;-61
2023/01/19 06:44:16;;;;;;;54.80;47.75;;;12.50;61.30;;;;;;5043726;27;84966;-61
2023/01/19 06:46:41;;;;;;;54.95;47.70;;;12.50;60.90;;;;;;5053390;27;85432;-61
2023/01/19 06:49:07;;;;;;;55.60;48.00;;;12.60;60.60;;;;;;5035846;27;84569;-58
2023/01/19 06:51:33;;;;;;;56.25;48.00;;;12.60;60.10;;;;;;5058892;27;84270;-63
2023/01/19 06:53:59;;;;;;;56.10;47.47;;;12.70;60.00;;;;;;5052993;27;85785;-54
2023/01/19 06:56:24;;;;;;;53.97;48.17;;;12.70;60.10;;;;;;5048615;27;86039;-58
2023/01/19 06:58:51;;;;;;;55.13;48.33;;;12.70;59.80;;;;;;5040503;27;85951;-58
2023/01/19 07:01:18;;;;;;;54.00;48.15;;;12.70;59.80;;;;;;5039011;27;85010;-62
2023/01/19 07:03:44;;;;;;;53.60;47.90;;;12.70;59.80;;;;;;5023783;27;84751;-62
2023/01/19 07:06:10;;;;;;;62.90;52.47;;;12.60;59.70;;;;;;5034293;27;85212;-60
2023/01/19 07:08:37;;;;;;;85.20;62.15;;;12.60;59.90;;;;;;5040244;27;85326;-59
2023/01/19 07:11:05;;;;;;;129.88;86.50;;;12.40;60.10;;;;;;5032481;27;86067;-60
2023/01/19 07:13:32;;;;;;;112.75;78.13;;;12.30;60.10;;;;;;5042634;27;86784;-48
2023/01/19 07:15:58;;;;;;;89.60;65.65;;;12.30;60.50;;;;;;5029366;27;85403;-60
2023/01/19 07:18:23;;;;;;;76.15;58.70;;;12.20;60.90;;;;;;5041902;27;85431;-47
2023/01/19 07:20:49;;;;;;;62.47;53.35;;;12.20;60.80;;;;;;5038764;27;93563;-57
2023/01/19 07:23:15;;;;;;;62.72;51.95;;;12.10;60.50;;;;;;5040472;27;88207;-61
2023/01/19 07:25:44;;;;;;;62.15;51.75;;;12.10;60.70;;;;;;5045285;27;85793;-55
2023/01/19 07:28:11;;;;;;;59.53;51.33;;;12.00;61.10;;;;;;5042153;27;86268;-53
2023/01/19 07:30:37;;;;;;;61.05;51.60;;;12.10;61.00;;;;;;5026499;27;85554;-60
2023/01/19 07:33:03;;;;;;;60.23;50.97;;;12.10;61.30;;;;;;5039662;27;85150;-52
2023/01/19 07:35:28;;;;;;;60.30;51.13;;;12.10;61.20;;;;;;5040489;27;85545;-58
2023/01/19 07:37:54;;;;;;;58.83;50.83;;;12.10;61.00;;;;;;5036397;27;86216;-54
2023/01/19 07:40:20;;;;;;;59.35;50.72;;;12.00;61.20;;;;;;5030604;27;86429;-61
2023/01/19 07:42:47;;;;;;;58.45;50.67;;;12.00;61.10;;;;;;5027866;27;92819;-59
2023/01/19 07:45:14;;;;;;;59.72;50.40;;;12.10;61.00;;;;;;5035711;27;91587;-60
2023/01/19 07:47:43;;;;;;;56.25;50.10;;;12.10;61.00;;;;;;5055836;27;85588;-60
2023/01/19 07:50:09;;;;;;;57.80;50.70;;;12.00;61.10;;;;;;5039986;27;86299;-57
2023/01/19 07:52:35;;;;;;;58.90;50.42;;;12.00;60.90;;;;;;5040895;27;85284;-62
2023/01/19 07:55:01;;;;;;;56.75;50.13;;;12.00;60.90;;;;;;5035266;27;85273;-57
2023/01/19 07:57:27;;;;;;;57.17;50.30;;;12.30;61.40;;;;;;5038512;27;84949;-54
2023/01/19 07:59:53;;;;;;;59.88;49.97;;;12.50;60.60;;;;;;5044663;27;86193;-54
2023/01/19 08:02:18;;;;;;;57.45;50.10;;;12.60;59.80;;;;;;5037664;27;85807;-57
2023/01/19 08:04:47;;;;;;;56.55;50.00;;;12.60;59.60;;;;;;5042833;27;86387;-51
2023/01/19 08:07:12;;;;;;;56.92;50.58;;;12.50;59.70;;;;;;5031906;27;86792;-56
2023/01/19 08:09:38;;;;;;;58.15;50.13;;;12.60;59.50;;;;;;5024365;27;85663;-56
2023/01/19 08:12:04;;;;;;;58.70;50.55;;;12.90;60.90;;;;;;5039672;27;88181;-46
2023/01/19 08:14:29;;;;;;;56.70;50.10;;;13.50;59.70;;;;;;5044998;27;86434;-58
2023/01/19 08:17:02;;;;;;;60.78;50.85;;;13.90;58.50;;;;;;5033198;27;90085;-55
2023/01/19 08:19:28;;;;;;;57.78;50.38;;;14.20;57.50;;;;;;5028302;27;85727;-55
2023/01/19 08:21:55;;;;;;;61.58;50.70;;;14.40;57.00;;;;;;5040325;27;86224;-59
2023/01/19 08:24:22;;;;;;;59.70;50.22;;;14.50;57.30;;;;;;5044041;27;85594;-59
2023/01/19 08:26:48;;;;;;;60.72;50.33;;;14.60;56.40;;;;;;5036239;27;86905;-52
2023/01/19 08:29:15;;;;;;;61.92;50.03;;;14.60;56.20;;;;;;5039532;27;85060;-59
2023/01/19 08:31:41;;;;;;;59.25;49.90;;;14.70;56.20;;;;;;5046089;27;85034;-54
2023/01/19 08:34:07;;;;;;;58.60;50.33;;;14.80;56.10;;;;;;5037572;27;85530;-53
2023/01/19 08:36:33;;;;;;;57.45;49.38;;;14.80;56.00;;;;;;5037181;27;86318;-59
2023/01/19 08:38:59;;;;;;;59.72;50.40;;;14.90;55.60;;;;;;5031268;27;84968;-58
2023/01/19 08:41:24;;;;;;;61.95;50.40;;;14.80;55.50;;;;;;5037205;27;86804;-59
2023/01/19 08:43:50;;;;;;;60.65;50.17;;;14.80;55.80;;;;;;5034291;27;89712;-60
2023/01/19 08:46:19;;;;;;;58.80;50.45;;;15.00;55.90;;;;;;5049566;27;85118;-53
2023/01/19 08:48:47;;;;;;;59.22;50.60;;;15.00;55.70;;;;;;5022117;27;90481;-60
2023/01/19 08:51:16;;;;;;;59.35;49.83;;;15.10;55.60;;;;;;5026848;27;88256;-60
2023/01/19 08:53:42;;;;;;;59.53;50.25;;;15.20;55.50;;;;;;5020950;27;88648;-59
2023/01/19 08:56:13;;;;;;;59.13;49.97;;;15.20;55.80;;;;;;5030460;27;84959;-58
2023/01/19 08:58:39;;;;;;;63.63;50.33;;;15.20;55.90;;;;;;5031952;27;88477;-58
2023/01/19 09:01:07;;;;;;;59.55;50.28;;;15.30;55.90;;;;;;5044817;27;85317;-60
2023/01/19 09:03:33;;;;;;;59.45;50.25;;;15.30;56.40;;;;;;5034584;27;86546;-55
2023/01/19 09:05:59;;;;;;;58.10;50.00;;;15.30;56.20;;;;;;5033363;27;85254;-59
2023/01/19 09:08:25;;;;;;;60.40;50.33;;;15.30;56.00;;;;;;5014247;27;86128;-51
2023/01/19 09:10:51;;;;;;;58.25;50.15;;;15.40;56.10;;;;;;5038067;27;85070;-56
2023/01/19 09:13:18;;;;;;;61.17;50.05;;;15.30;56.20;;;;;;5029405;27;86225;-57
2023/01/19 09:15:44;;;;;;;69.45;50.55;;;15.30;56.70;;;;;;5039574;27;85874;-53
2023/01/19 09:18:19;;;;;;;64.75;49.95;;;15.30;56.80;;;;;;5037302;27;85396;-57
2023/01/19 09:20:47;;;;;;;57.97;50.05;;;15.30;56.40;;;;;;5031160;27;90415;-57
2023/01/19 09:23:15;;;;;;;58.22;49.88;;;15.20;56.50;;;;;;5028895;27;87796;-57
2023/01/19 09:25:43;;;;;;;58.33;49.75;;;15.20;56.40;;;;;;5032925;27;85581;-57
2023/01/19 09:28:10;;;;;;;61.55;52.08;;;15.20;56.50;;;;;;5039698;27;87106;-58
2023/01/19 09:30:37;;;;;;;65.47;55.42;;;15.20;56.20;;;;;;5025791;27;86702;-57
2023/01/19 09:33:06;;;;;;;64.90;54.55;;;15.10;56.50;;;;;;5033698;27;86118;-55
2023/01/19 09:35:32;;;;;;;61.03;52.40;;;15.10;56.40;;;;;;5024779;27;90019;-56
2023/01/19 09:37:59;;;;;;;62.30;51.95;;;15.20;56.40;;;;;;5051654;27;85029;-58
2023/01/19 09:40:25;;;;;;;63.85;52.25;;;15.30;56.40;;;;;;5041096;27;86970;-56
2023/01/19 09:43:14;;;;;;;63.05;51.90;;;15.50;55.90;;;;;;5046812;27;89036;-57
2023/01/19 09:45:49;;;;;;;61.25;52.00;;;15.70;55.50;;;;;;5040444;27;85747;-56
2023/01/19 09:48:25;;;;;;;63.20;51.45;;;15.80;55.10;;;;;;5030161;27;86049;-58
2023/01/19 09:50:54;;;;;;;62.72;51.88;;;15.90;54.80;;;;;;5041942;27;85716;-57
2023/01/19 09:53:34;;;;;;;61.83;51.28;;;16.00;54.40;;;;;;5047363;27;86830;-56
2023/01/19 09:56:00;;;;;;;60.45;50.78;;;16.00;54.50;;;;;;5043303;27;87526;-57
2023/01/19 09:58:26;;;;;;;61.40;51.28;;;16.10;54.20;;;;;;5041075;27;86558;-51
2023/01/19 10:01:08;;;;;;;61.25;51.45;;;16.10;54.50;;;;;;5022807;27;86988;-50
2023/01/19 10:03:40;;;;;;;64.78;51.55;;;16.10;54.40;;;;;;5040742;27;85513;-58
2023/01/19 10:06:10;;;;;;;61.63;51.08;;;16.00;54.50;;;;;;5035488;27;85075;-58
2023/01/19 10:08:48;;;;;;;64.13;51.47;;;16.00;54.80;;;;;;5023805;27;86130;-56
2023/01/19 10:11:24;;;;;;;66.78;51.85;;;16.00;55.00;;;;;;5033802;27;85551;-57
2023/01/19 10:13:51;;;;;;;63.38;51.58;;;16.00;55.50;;;;;;5036305;27;85969;-59
2023/01/19 10:16:32;;;;;;;66.15;51.42;;;16.00;55.80;;;;;;5043555;27;85895;-59
2023/01/19 10:19:36;;;;;;;61.63;51.22;;;16.00;55.90;;;;;;5031776;27;85796;-60
2023/01/19 10:22:22;;;;;;;61.85;51.38;;;16.00;56.00;;;;;;5038387;27;91315;-61
2023/01/19 10:24:53;;;;;;;64.60;51.10;;;16.00;56.30;;;;;;5041823;27;85914;-63
2023/01/19 10:27:27;;;;;;;65.15;51.15;;;16.10;55.90;;;;;;5047643;27;87530;-62
2023/01/19 10:29:53;;;;;;;62.20;50.30;;;16.10;55.60;;;;;;5051028;27;84676;-58
2023/01/19 10:32:24;;;;;;;61.60;51.75;;;16.20;55.50;;;;;;5049044;27;84973;-62
2023/01/19 10:34:51;;;;;;;;;;;16.20;55.40;;;;;;5040345;27;86178;-58
2023/01/19 10:37:16;;;;;;;63.30;50.97;;;16.20;55.30;;;;;;5052912;27;85347;-63
2023/01/19 10:39:52;;;;;;;62.15;50.97;;;16.20;55.30;;;;;;5033332;27;84603;-63
2023/01/19 10:42:18;;;;;;;60.65;50.28;;;16.20;55.10;;;;;;5040930;27;85063;-58
2023/01/19 10:44:44;;;;;;;62.50;50.72;;;16.20;55.00;;;;;;5046717;27;86536;-62
2023/01/19 10:47:19;;;;;;;60.50;50.58;;;16.20;55.20;;;;;;5049089;27;86742;-62
2023/01/19 10:49:46;;;;;;;61.53;50.55;;;16.10;55.10;;;;;;5034194;27;86062;-62
2023/01/19 10:52:20;;;;;;;61.10;50.63;;;16.10;55.30;;;;;;5049985;27;85646;-62
2023/01/19 10:54:49;;;;;;;60.60;50.10;;;16.10;55.00;;;;;;5040040;27;87085;-62
2023/01/19 10:57:27;;;;;;;60.88;50.28;;;16.10;55.10;;;;;;5050156;27;86395;-62
2023/01/19 10:59:52;;;;;;;60.75;50.17;;;16.10;55.00;;;;;;5050024;27;85115;-61
2023/01/19 11:02:18;;;;;;;61.65;50.38;;;16.20;54.90;;;;;;5040693;27;87324;-62
2023/01/19 11:04:47;;;;;;;62.08;50.08;;;16.10;54.90;;;;;;5032830;27;86080;-62
2023/01/19 11:07:25;;;;;;;59.58;50.22;;;16.10;54.90;;;;;;5051917;27;85246;-54
2023/01/19 11:10:16;;;;;;;61.85;50.35;;;16.10;54.80;;;;;;5037803;27;85229;-62
2023/01/19 11:13:14;;;;;;;59.93;50.37;;;16.20;55.00;;;;;;5053535;27;86225;-60
2023/01/19 11:15:43;;;;;;;63.20;50.40;;;16.20;54.70;;;;;;5049029;27;85478;-62
2023/01/19 11:18:25;;;;;;;60.05;51.17;;;16.20;54.60;;;;;;5035799;27;85802;-61
2023/01/19 11:20:53;;;;;;;60.65;51.05;;;16.20;54.80;;;;;;5040154;27;85678;-63
2023/01/19 11:23:18;;;;;;;60.60;50.78;;;16.20;54.70;;;;;;5045995;27;85063;-61
2023/01/19 11:25:50;;;;;;;61.25;50.72;;;16.10;54.50;;;;;;5042587;27;85154;-62
2023/01/19 11:28:35;;;;;;;60.22;50.95;;;16.20;54.50;;;;;;5049398;27;84637;-63
2023/01/19 11:31:15;;;;;;;61.00;51.22;;;16.10;54.40;;;;;;5037255;27;88582;-50
2023/01/19 11:33:46;;;;;;;59.40;50.67;;;16.20;54.40;;;;;;5032947;27;85342;-59
2023/01/19 11:36:19;;;;;;;62.15;50.63;;;16.10;54.40;;;;;;5042924;27;85583;-60
2023/01/19 11:38:49;;;;;;;61.28;51.03;;;16.10;54.40;;;;;;5046446;27;89732;-61
2023/01/19 11:41:36;;;;;;;62.00;50.40;;;16.00;54.50;;;;;;5052724;27;84574;-52
2023/01/19 11:44:18;;;;;;;60.70;50.33;;;16.00;54.70;;;;;;5044595;27;85745;-61
2023/01/19 11:46:47;;;;;;;58.75;49.80;;;16.00;54.50;;;;;;5033988;27;86537;-63
2023/01/19 11:49:39;;;;;;;60.50;50.67;;;16.00;54.80;;;;;;5029460;27;87047;-62
2023/01/19 11:52:18;;;;;;;60.40;50.28;;;16.00;54.50;;;;;;5031148;27;86587;-50
2023/01/19 11:55:13;;;;;;;60.55;50.40;;;16.00;54.70;;;;;;5037221;27;91350;-61
2023/01/19 11:57:47;;;;;;;59.58;50.05;;;15.90;54.60;;;;;;5043704;27;86027;-62
2023/01/19 12:00:35;;;;;;;60.60;50.50;;;16.00;54.70;;;;;;5038287;27;85567;-62
2023/01/19 12:03:29;;;;;;;58.72;50.17;;;15.90;54.60;;;;;;5023534;27;86762;-60
2023/01/19 12:06:00;;;;;;;59.53;50.25;;;16.00;54.40;;;;;;5038066;27;89985;-58
2023/01/19 12:08:34;;;;;;;60.90;50.22;;;15.90;54.40;;;;;;5042929;27;85079;-61
2023/01/19 12:11:02;;;;;;;59.33;50.03;;;15.90;54.50;;;;;;5047621;27;87233;-62
2023/01/19 12:13:30;;;;;;;60.03;49.95;;;15.90;54.50;;;;;;5031518;27;89269;-63
2023/01/19 12:16:08;;;;;;;61.47;50.45;;;15.80;54.80;;;;;;5037467;27;86744;-61
2023/01/19 12:18:44;;;;;;;59.13;50.40;;;15.80;54.80;;;;;;5036437;27;86585;-62
2023/01/19 12:21:09;;;;;;;59.95;50.25;;;15.90;54.60;;;;;;5044287;27;87718;-59
2023/01/19 12:23:47;;;;;;;61.90;50.25;;;15.80;54.70;;;;;;5045988;27;84774;-62
2023/01/19 12:26:28;;;;;;;60.92;50.33;;;15.80;54.90;;;;;;5050768;27;85808;-60
2023/01/19 12:28:59;;;;;;;60.08;50.15;;;15.80;54.90;;;;;;5039445;27;86987;-60
2023/01/19 12:31:24;;;;;;;59.15;50.45;;;15.80;54.80;;;;;;5042851;27;86361;-58
2023/01/19 12:33:50;;;;;;;59.58;50.55;;;15.70;55.00;;;;;;5036980;27;90052;-62
2023/01/19 12:36:16;;;;;;;59.85;50.08;;;15.70;55.00;;;;;;5044603;27;88287;-62
2023/01/19 12:38:54;;;;;;;57.80;49.88;;;15.60;55.10;;;;;;5029688;27;86185;-56
2023/01/19 12:41:34;;;;;;;59.40;50.40;;;15.60;55.20;;;;;;5033977;27;86294;-62
2023/01/19 12:44:12;;;;;;;60.00;50.33;;;15.60;55.10;;;;;;5024626;27;88495;-60
2023/01/19 12:46:41;;;;;;;60.13;50.45;;;15.60;55.00;;;;;;5036495;27;88614;-62